createdAt,value
2022-11-10T05:29:42.169Z,0.00
2022-11-10T05:29:54.087Z,0.00
2022-11-10T05:30:46.910Z,0.00
2022-11-10T05:31:51.275Z,0.00
2022-11-10T05:32:46.891Z,0.00
2022-11-10T05:33:46.881Z,0.00
2022-11-10T05:34:46.879Z,0.00
2022-11-10T05:35:46.849Z,0.00
2022-11-10T05:36:46.871Z,0.00
2022-11-10T05:37:46.818Z,0.00
2022-11-10T05:38:46.836Z,0.00
2022-11-10T05:39:46.810Z,0.00
2022-11-10T05:40:47.040Z,0.00
2022-11-10T05:41:46.783Z,0.00
2022-11-10T05:42:46.750Z,0.00
2022-11-10T05:43:46.752Z,0.00
2022-11-10T05:44:46.723Z,0.00
2022-11-10T05:45:46.712Z,0.00
2022-11-10T05:46:46.703Z,0.00
2022-11-10T05:47:46.696Z,0.00
2022-11-10T05:48:46.686Z,0.00
2022-11-10T05:49:46.663Z,0.00
2022-11-10T05:50:46.662Z,0.00
2022-11-10T05:51:46.645Z,0.00
2022-11-10T05:52:50.204Z,0.00
2022-11-10T05:53:46.604Z,0.00
2022-11-10T05:54:46.595Z,0.00
2022-11-10T05:55:46.634Z,0.00
2022-11-10T05:56:46.814Z,0.00
2022-11-10T05:57:46.570Z,0.00
2022-11-10T05:58:46.545Z,0.00
2022-11-10T05:59:46.786Z,0.00
2022-11-10T06:00:47.464Z,0.00
2022-11-10T06:01:46.508Z,0.00
2022-11-10T06:02:46.486Z,0.00
2022-11-10T06:03:46.512Z,0.00
2022-11-10T06:04:46.698Z,0.00
2022-11-10T06:05:46.445Z,0.00
2022-11-10T06:06:46.485Z,0.00
2022-11-10T06:07:46.417Z,0.00
2022-11-10T06:08:46.406Z,0.00
2022-11-10T06:09:46.387Z,0.00
2022-11-10T06:10:46.388Z,0.00
2022-11-10T06:11:46.376Z,0.00
2022-11-10T06:12:46.767Z,0.00
2022-11-10T06:13:46.348Z,0.00
2022-11-10T06:14:46.347Z,5.62
2022-11-10T06:15:50.389Z,5.62
2022-11-10T06:16:46.756Z,5.62
2022-11-10T06:17:46.290Z,5.62
2022-11-10T06:18:46.279Z,5.62
2022-11-10T06:19:46.259Z,5.62
2022-11-10T06:20:46.250Z,5.62
2022-11-10T06:21:46.240Z,5.62
2022-11-10T06:22:46.219Z,5.62
2022-11-10T06:23:46.199Z,5.62
2022-11-10T06:24:46.199Z,11.25
2022-11-10T06:25:46.180Z,11.25
2022-11-10T06:26:46.182Z,11.25
2022-11-10T06:27:46.151Z,11.25
2022-11-10T06:28:46.141Z,11.25
2022-11-10T06:29:47.082Z,16.88
2022-11-10T06:30:46.123Z,16.88
2022-11-10T06:31:46.102Z,16.88
2022-11-10T06:32:46.083Z,16.88
2022-11-10T06:33:46.063Z,22.50
2022-11-10T06:34:46.052Z,22.50
2022-11-10T06:35:46.040Z,22.50
2022-11-10T06:36:46.046Z,22.50
2022-11-10T06:37:46.011Z,28.12
2022-11-10T06:38:46.003Z,28.12
2022-11-10T06:39:45.991Z,28.12
2022-11-10T06:40:45.995Z,28.12
2022-11-10T06:41:45.975Z,28.12
2022-11-10T06:42:45.957Z,33.75
2022-11-10T06:43:45.945Z,33.75
2022-11-10T06:44:45.928Z,33.75
2022-11-10T06:45:45.922Z,33.75
2022-11-10T06:46:45.915Z,39.38
2022-11-10T06:47:45.898Z,39.38
2022-11-10T06:48:45.872Z,39.38
2022-11-10T06:49:46.806Z,45.00
2022-11-10T06:50:45.861Z,45.00
2022-11-10T06:51:45.830Z,45.00
2022-11-10T06:52:45.821Z,45.00
2022-11-10T06:53:45.795Z,45.00
2022-11-10T06:54:45.798Z,50.62
2022-11-10T06:55:45.778Z,50.62
2022-11-10T06:56:45.787Z,50.62
2022-11-10T06:57:45.745Z,50.62
2022-11-10T06:58:45.748Z,56.25
2022-11-10T06:59:45.708Z,56.25
2022-11-10T07:00:45.729Z,56.25
2022-11-10T07:01:45.750Z,56.25
2022-11-10T07:02:45.690Z,56.25
2022-11-10T07:04:13.128Z,61.88
2022-11-10T07:04:46.659Z,61.88
2022-11-10T07:05:45.635Z,61.88
2022-11-10T07:06:45.678Z,61.88
2022-11-10T07:07:45.639Z,61.88
2022-11-10T07:08:45.600Z,61.88
2022-11-10T07:09:45.582Z,61.88
2022-11-10T07:10:45.577Z,67.50
2022-11-10T07:11:45.551Z,67.50
2022-11-10T07:12:45.542Z,67.50
2022-11-10T07:13:45.522Z,67.50
2022-11-10T07:14:45.518Z,67.50
2022-11-10T07:15:45.515Z,67.50
2022-11-10T07:16:45.523Z,67.50
2022-11-10T07:17:45.499Z,73.12
2022-11-10T07:18:45.491Z,73.12
2022-11-10T07:19:45.483Z,73.12
2022-11-10T07:20:45.478Z,73.12
2022-11-10T07:21:45.457Z,73.12
2022-11-10T07:22:45.413Z,78.75
2022-11-10T07:23:45.397Z,78.75
2022-11-10T07:24:45.384Z,78.75
2022-11-10T07:25:45.373Z,78.75
2022-11-10T07:26:45.354Z,78.75
2022-11-10T07:27:45.345Z,84.38
2022-11-10T07:28:45.338Z,84.38
2022-11-10T07:29:45.321Z,84.38
2022-11-10T07:30:45.318Z,84.38
2022-11-10T07:31:45.286Z,90.00
2022-11-10T07:32:45.274Z,90.00
2022-11-10T07:33:46.114Z,90.00
2022-11-10T07:34:45.256Z,95.62
2022-11-10T07:35:45.236Z,95.62
2022-11-10T07:36:45.235Z,95.62
2022-11-10T07:37:45.207Z,95.62
2022-11-10T07:38:46.147Z,95.62
2022-11-10T07:39:45.191Z,95.62
2022-11-10T07:40:45.185Z,95.62
2022-11-10T07:41:48.749Z,95.62
2022-11-10T07:42:47.096Z,101.25
2022-11-10T07:43:45.138Z,101.25
2022-11-10T07:44:45.123Z,101.25
2022-11-10T07:45:45.108Z,101.25
2022-11-10T07:46:45.111Z,101.25
2022-11-10T07:47:45.071Z,101.25
2022-11-10T07:48:45.062Z,101.25
2022-11-10T07:49:45.041Z,106.88
2022-11-10T07:50:45.040Z,106.88
2022-11-10T07:51:45.041Z,106.88
2022-11-10T07:52:45.013Z,106.88
2022-11-10T07:53:44.999Z,106.88
2022-11-10T07:54:44.978Z,112.50
2022-11-10T07:55:44.979Z,112.50
2022-11-10T07:56:44.951Z,112.50
2022-11-10T07:57:44.957Z,112.50
2022-11-10T07:58:44.921Z,112.50
2022-11-10T07:59:44.924Z,112.50
2022-11-10T08:00:44.913Z,112.50
2022-11-10T08:01:44.917Z,112.50
2022-11-10T08:02:44.872Z,112.50
2022-11-10T08:03:44.863Z,112.50
2022-11-10T08:04:44.851Z,112.50
2022-11-10T08:05:44.846Z,112.50
2022-11-10T08:06:44.880Z,118.12
2022-11-10T08:07:44.827Z,118.12
2022-11-10T08:08:44.798Z,118.12
2022-11-10T08:09:44.780Z,118.12
2022-11-10T08:10:44.776Z,118.12
2022-11-10T08:11:44.754Z,118.12
2022-11-10T08:12:44.745Z,118.12
2022-11-10T08:13:44.800Z,123.75
2022-11-10T08:14:44.715Z,123.75
2022-11-10T08:15:44.748Z,123.75
2022-11-10T08:16:44.703Z,123.75
2022-11-10T08:17:44.684Z,129.38
2022-11-10T08:18:44.671Z,129.38
2022-11-10T08:19:44.656Z,129.38
2022-11-10T08:20:44.657Z,123.75
2022-11-10T08:21:44.626Z,129.38
2022-11-10T08:22:44.855Z,129.38
2022-11-10T08:23:44.590Z,129.38
2022-11-10T08:24:44.588Z,129.38
2022-11-10T08:25:44.582Z,135.00
2022-11-10T08:26:44.580Z,140.62
2022-11-10T08:27:44.603Z,140.62
2022-11-10T08:28:44.531Z,146.25
2022-11-10T08:29:44.520Z,151.88
2022-11-10T08:30:44.520Z,157.50
2022-11-10T08:31:44.518Z,163.12
2022-11-10T08:32:44.501Z,168.75
2022-11-10T08:33:44.479Z,168.75
2022-11-10T08:34:44.450Z,180.00
2022-11-10T08:35:44.450Z,185.62
2022-11-10T08:36:44.441Z,185.62
2022-11-10T08:37:44.422Z,196.88
2022-11-10T08:38:44.409Z,196.88
2022-11-10T08:39:45.331Z,196.88
2022-11-10T08:40:44.388Z,196.88
2022-11-10T08:41:44.363Z,196.88
2022-11-10T08:42:44.354Z,196.88
2022-11-10T08:43:44.348Z,191.25
2022-11-10T08:44:44.331Z,191.25
2022-11-10T08:45:44.317Z,185.62
2022-11-10T08:46:44.330Z,174.38
2022-11-10T08:47:45.233Z,180.00
2022-11-10T08:48:45.092Z,174.38
2022-11-10T08:49:44.266Z,168.75
2022-11-10T08:50:44.257Z,157.50
2022-11-10T08:51:44.229Z,151.88
2022-11-10T08:52:45.046Z,146.25
2022-11-10T08:53:44.205Z,135.00
2022-11-10T08:54:44.205Z,135.00
2022-11-10T08:55:44.183Z,135.00
2022-11-10T08:56:44.179Z,123.75
2022-11-10T08:57:44.148Z,118.12
2022-11-10T08:58:52.805Z,123.75
2022-11-10T08:59:45.118Z,123.75
2022-11-10T09:00:44.132Z,123.75
2022-11-10T09:01:44.096Z,129.38
2022-11-10T09:02:44.088Z,123.75
2022-11-10T09:03:44.068Z,129.38
2022-11-10T09:04:44.123Z,140.62
2022-11-10T09:05:44.055Z,146.25
2022-11-10T09:06:44.999Z,157.50
2022-11-10T09:07:44.030Z,174.38
2022-11-10T09:08:44.017Z,185.62
2022-11-10T09:09:46.621Z,191.25
2022-11-10T09:10:45.000Z,185.62
2022-11-10T09:11:43.970Z,185.62
2022-11-10T09:12:43.958Z,180.00
2022-11-10T09:13:43.942Z,174.38
2022-11-10T09:14:43.941Z,168.75
2022-11-10T09:15:43.920Z,168.75
2022-11-10T09:16:43.912Z,168.75
2022-11-10T09:17:43.893Z,163.12
2022-11-10T09:18:43.882Z,157.50
2022-11-10T09:19:43.934Z,163.12
2022-11-10T09:20:43.853Z,157.50
2022-11-10T09:21:43.836Z,157.50
2022-11-10T09:22:43.839Z,157.50
2022-11-10T09:23:43.805Z,146.25
2022-11-10T09:24:43.824Z,146.25
2022-11-10T09:25:43.795Z,146.25
2022-11-10T09:26:43.776Z,140.62
2022-11-10T09:27:43.756Z,146.25
2022-11-10T09:28:43.895Z,140.62
2022-11-10T09:29:44.685Z,146.25
2022-11-10T09:30:43.722Z,151.88
2022-11-10T09:31:43.706Z,151.88
2022-11-10T09:32:43.699Z,151.88
2022-11-10T09:33:43.675Z,140.62
2022-11-10T09:34:46.584Z,135.00
2022-11-10T09:35:44.918Z,135.00
2022-11-10T09:36:43.653Z,146.25
2022-11-10T09:37:43.626Z,157.50
2022-11-10T09:38:43.620Z,151.88
2022-11-10T09:39:43.628Z,157.50
2022-11-10T09:40:44.554Z,146.25
2022-11-10T09:41:43.578Z,157.50
2022-11-10T09:42:43.568Z,163.12
2022-11-10T09:43:43.558Z,163.12
2022-11-10T09:44:43.540Z,163.12
2022-11-10T09:45:43.544Z,163.12
2022-11-10T09:46:43.508Z,163.12
2022-11-10T09:47:57.234Z,163.12
2022-11-10T09:48:44.500Z,168.75
2022-11-10T09:49:43.479Z,168.75
2022-11-10T09:50:43.502Z,174.38
2022-11-10T09:51:48.145Z,185.62
2022-11-10T09:52:44.437Z,196.88
2022-11-10T09:53:43.432Z,208.12
2022-11-10T09:54:43.402Z,219.38
2022-11-10T09:55:43.422Z,230.62
2022-11-10T09:56:43.382Z,236.25
2022-11-10T09:57:47.704Z,247.50
2022-11-10T09:58:44.376Z,258.75
2022-11-10T09:59:43.353Z,264.38
2022-11-10T10:00:43.331Z,264.38
2022-11-10T10:01:43.345Z,247.50
2022-11-10T10:02:43.305Z,236.25
2022-11-10T10:03:43.304Z,230.62
2022-11-10T10:04:50.550Z,213.75
2022-11-10T10:05:44.256Z,191.25
2022-11-10T10:07:04.760Z,174.38
2022-11-10T10:07:44.269Z,168.75
2022-11-10T10:08:43.235Z,163.12
2022-11-10T10:09:43.209Z,146.25
2022-11-10T10:10:43.195Z,140.62
2022-11-10T10:11:43.190Z,118.12
2022-11-10T10:12:43.167Z,118.12
2022-11-10T10:13:44.128Z,118.12
2022-11-10T10:14:43.149Z,129.38
2022-11-10T10:15:43.139Z,123.75
2022-11-10T10:16:43.117Z,129.38
2022-11-10T10:17:43.109Z,140.62
2022-11-10T10:18:43.109Z,163.12
2022-11-10T10:19:43.084Z,163.12
2022-11-10T10:20:43.068Z,163.12
2022-11-10T10:21:43.060Z,163.12
2022-11-10T10:22:43.038Z,163.12
2022-11-10T10:24:07.769Z,163.12
2022-11-10T10:24:44.013Z,168.75
2022-11-10T10:25:43.008Z,163.12
2022-11-10T10:26:42.989Z,163.12
2022-11-10T10:27:42.974Z,163.12
2022-11-10T10:28:43.922Z,163.12
2022-11-10T10:29:42.952Z,163.12
2022-11-10T10:30:42.933Z,163.12
2022-11-10T10:31:42.950Z,168.75
2022-11-10T10:32:42.904Z,163.12
2022-11-10T10:33:42.902Z,168.75
2022-11-10T10:34:42.877Z,163.12
2022-11-10T10:35:42.863Z,168.75
2022-11-10T10:36:42.859Z,168.75
2022-11-10T10:37:42.855Z,168.75
2022-11-10T10:38:42.854Z,168.75
2022-11-10T10:39:42.826Z,168.75
2022-11-10T10:40:42.804Z,168.75
2022-11-10T10:41:42.796Z,168.75
2022-11-10T10:42:42.794Z,174.38
2022-11-10T10:43:42.787Z,168.75
2022-11-10T10:44:42.752Z,168.75
2022-11-10T10:45:43.728Z,174.38
2022-11-10T10:46:42.728Z,174.38
2022-11-10T10:47:42.713Z,180.00
2022-11-10T10:48:42.718Z,185.62
2022-11-10T10:49:42.687Z,196.88
2022-11-10T10:50:42.674Z,208.12
2022-11-10T10:51:42.669Z,202.50
2022-11-10T10:52:43.589Z,168.75
2022-11-10T10:53:42.638Z,174.38
2022-11-10T10:54:42.654Z,213.75
2022-11-10T10:55:42.611Z,213.75
2022-11-10T10:56:42.628Z,219.38
2022-11-10T10:57:42.579Z,236.25
2022-11-10T10:58:42.570Z,253.12
2022-11-10T10:59:42.563Z,270.00
2022-11-10T11:00:42.566Z,230.62
2022-11-10T11:01:42.550Z,247.50
2022-11-10T11:02:43.714Z,281.25
2022-11-10T11:03:42.523Z,281.25
2022-11-10T11:04:42.493Z,270.00
2022-11-10T11:05:42.512Z,230.62
2022-11-10T11:06:42.494Z,208.12
2022-11-10T11:07:43.395Z,196.88
2022-11-10T11:08:42.443Z,191.25
2022-11-10T11:09:42.424Z,202.50
2022-11-10T11:10:42.405Z,202.50
2022-11-10T11:11:42.405Z,247.50
2022-11-10T11:12:42.408Z,213.75
2022-11-10T11:13:42.414Z,208.12
2022-11-10T11:14:46.013Z,258.75
2022-11-10T11:15:42.348Z,219.38
2022-11-10T11:16:42.335Z,270.00
2022-11-10T11:17:42.356Z,281.25
2022-11-10T11:18:42.307Z,247.50
2022-11-10T11:19:42.301Z,213.75
2022-11-10T11:20:42.282Z,225.00
2022-11-10T11:21:42.287Z,247.50
2022-11-10T11:22:42.271Z,230.62
2022-11-10T11:23:42.249Z,219.38
2022-11-10T11:24:42.250Z,219.38
2022-11-10T11:25:42.236Z,219.38
2022-11-10T11:26:42.208Z,225.00
2022-11-10T11:27:42.200Z,236.25
2022-11-10T11:28:42.190Z,236.25
2022-11-10T11:29:42.186Z,230.62
2022-11-10T11:30:42.167Z,230.62
2022-11-10T11:31:43.373Z,225.00
2022-11-10T11:32:42.131Z,236.25
2022-11-10T11:33:42.121Z,247.50
2022-11-10T11:34:43.050Z,247.50
2022-11-10T11:35:42.092Z,236.25
2022-11-10T11:36:43.022Z,230.62
2022-11-10T11:37:42.068Z,219.38
2022-11-10T11:38:42.053Z,213.75
2022-11-10T11:39:42.990Z,213.75
2022-11-10T11:40:42.022Z,213.75
2022-11-10T11:41:42.964Z,208.12
2022-11-10T11:42:42.013Z,213.75
2022-11-10T11:43:41.986Z,213.75
2022-11-10T11:44:41.978Z,213.75
2022-11-10T11:45:41.956Z,208.12
2022-11-10T11:46:46.351Z,208.12
2022-11-10T11:47:42.965Z,208.12
2022-11-10T11:48:41.915Z,208.12
2022-11-10T11:49:41.916Z,213.75
2022-11-10T11:50:42.856Z,213.75
2022-11-10T11:51:41.883Z,213.75
2022-11-10T11:52:41.886Z,213.75
2022-11-10T11:53:41.856Z,213.75
2022-11-10T11:54:41.844Z,213.75
2022-11-10T11:55:42.910Z,213.75
2022-11-10T11:56:41.808Z,219.38
2022-11-10T11:57:41.806Z,225.00
2022-11-10T11:58:41.789Z,225.00
2022-11-10T11:59:41.769Z,230.62
2022-11-10T12:00:42.711Z,230.62
2022-11-10T12:01:41.760Z,230.62
2022-11-10T12:02:41.781Z,230.62
2022-11-10T12:03:42.683Z,236.25
2022-11-10T12:04:41.721Z,236.25
2022-11-10T12:05:41.701Z,236.25
2022-11-10T12:06:42.686Z,230.62
2022-11-10T12:07:41.679Z,191.25
2022-11-10T12:08:41.655Z,196.88
2022-11-10T12:09:41.654Z,157.50
2022-11-10T12:10:43.278Z,168.75
2022-11-10T12:11:41.616Z,163.12
2022-11-10T12:12:41.606Z,168.75
2022-11-10T12:13:41.584Z,146.25
2022-11-10T12:14:41.594Z,174.38
2022-11-10T12:15:41.795Z,180.00
2022-11-10T12:16:41.556Z,185.62
2022-11-10T12:17:41.544Z,185.62
2022-11-10T12:18:43.595Z,157.50
2022-11-10T12:19:42.520Z,196.88
2022-11-10T12:20:41.486Z,180.00
2022-11-10T12:21:41.497Z,163.12
2022-11-10T12:22:41.462Z,174.38
2022-11-10T12:23:41.466Z,196.88
2022-11-10T12:24:41.437Z,174.38
2022-11-10T12:25:42.387Z,191.25
2022-11-10T12:26:41.438Z,185.62
2022-11-10T12:27:42.361Z,191.25
2022-11-10T12:28:41.390Z,191.25
2022-11-10T12:29:41.379Z,185.62
2022-11-10T12:30:41.358Z,180.00
2022-11-10T12:31:41.373Z,174.38
2022-11-10T12:32:41.348Z,174.38
2022-11-10T12:33:42.294Z,163.12
2022-11-10T12:34:41.339Z,163.12
2022-11-10T12:35:41.304Z,168.75
2022-11-10T12:36:41.290Z,168.75
2022-11-10T12:37:41.520Z,168.75
2022-11-10T12:38:41.260Z,174.38
2022-11-10T12:39:42.209Z,180.00
2022-11-10T12:40:42.196Z,180.00
2022-11-10T12:41:41.225Z,180.00
2022-11-10T12:42:41.218Z,180.00
2022-11-10T12:43:41.200Z,151.88
2022-11-10T12:44:41.185Z,163.12
2022-11-10T12:45:41.184Z,174.38
2022-11-10T12:46:41.163Z,157.50
2022-11-10T12:47:41.155Z,174.38
2022-11-10T12:48:41.136Z,180.00
2022-11-10T12:49:41.131Z,191.25
2022-11-10T12:50:41.111Z,202.50
2022-11-10T12:51:41.106Z,213.75
2022-11-10T12:52:41.075Z,180.00
2022-11-10T12:53:41.075Z,163.12
2022-11-10T12:54:41.049Z,157.50
2022-11-10T12:55:41.057Z,157.50
2022-11-10T12:56:41.046Z,157.50
2022-11-10T12:57:41.318Z,168.75
2022-11-10T12:58:41.258Z,174.38
2022-11-10T12:59:40.998Z,168.75
2022-11-10T13:00:40.989Z,157.50
2022-11-10T13:01:41.019Z,174.38
2022-11-10T13:02:40.987Z,140.62
2022-11-10T13:03:40.948Z,135.00
2022-11-10T13:04:40.963Z,146.25
2022-11-10T13:05:40.966Z,146.25
2022-11-10T13:06:41.190Z,129.38
2022-11-10T13:07:40.908Z,129.38
2022-11-10T13:08:40.869Z,135.00
2022-11-10T13:09:40.861Z,151.88
2022-11-10T13:10:40.840Z,163.12
2022-11-10T13:11:40.840Z,185.62
2022-11-10T13:12:40.811Z,180.00
2022-11-10T13:13:40.810Z,180.00
2022-11-10T13:14:40.816Z,157.50
2022-11-10T13:15:40.794Z,157.50
2022-11-10T13:16:40.772Z,180.00
2022-11-10T13:17:41.017Z,185.62
2022-11-10T13:18:40.743Z,185.62
2022-11-10T13:19:40.723Z,174.38
2022-11-10T13:20:40.733Z,174.38
2022-11-10T13:21:40.853Z,168.75
2022-11-10T13:22:40.735Z,168.75
2022-11-10T13:23:40.683Z,174.38
2022-11-10T13:24:40.831Z,174.38
2022-11-10T13:25:40.685Z,168.75
2022-11-10T13:26:40.634Z,168.75
2022-11-10T13:27:40.636Z,163.12
2022-11-10T13:28:40.614Z,157.50
2022-11-10T13:29:40.614Z,157.50
2022-11-10T13:30:40.596Z,151.88
2022-11-10T13:31:40.585Z,157.50
2022-11-10T13:32:40.577Z,163.12
2022-11-10T13:33:40.537Z,157.50
2022-11-10T13:34:40.522Z,146.25
2022-11-10T13:35:40.532Z,140.62
2022-11-10T13:36:40.498Z,146.25
2022-11-10T13:37:40.499Z,157.50
2022-11-10T13:38:40.489Z,151.88
2022-11-10T13:39:40.471Z,140.62
2022-11-10T13:40:40.461Z,151.88
2022-11-10T13:41:40.450Z,168.75
2022-11-10T13:42:46.042Z,157.50
2022-11-10T13:43:41.412Z,151.88
2022-11-10T13:44:40.441Z,146.25
2022-11-10T13:45:40.422Z,157.50
2022-11-10T13:46:40.387Z,146.25
2022-11-10T13:47:40.380Z,140.62
2022-11-10T13:48:40.362Z,135.00
2022-11-10T13:49:40.340Z,129.38
2022-11-10T13:50:40.339Z,123.75
2022-11-10T13:51:40.314Z,118.12
2022-11-10T13:52:40.334Z,112.50
2022-11-10T13:53:41.265Z,112.50
2022-11-10T13:54:40.275Z,112.50
2022-11-10T13:55:40.273Z,106.88
2022-11-10T13:56:40.250Z,101.25
2022-11-10T13:57:40.279Z,106.88
2022-11-10T13:58:40.276Z,106.88
2022-11-10T13:59:40.231Z,106.88
2022-11-10T14:00:40.205Z,106.88
2022-11-10T14:01:40.191Z,106.88
2022-11-10T14:02:40.177Z,101.25
2022-11-10T14:03:40.263Z,101.25
2022-11-10T14:04:40.212Z,101.25
2022-11-10T14:05:40.146Z,101.25
2022-11-10T14:06:40.168Z,101.25
2022-11-10T14:07:40.149Z,101.25
2022-11-10T14:08:40.090Z,95.62
2022-11-10T14:09:40.095Z,95.62
2022-11-10T14:10:40.083Z,95.62
2022-11-10T14:11:40.061Z,95.62
2022-11-10T14:12:40.055Z,90.00
2022-11-10T14:13:40.031Z,84.38
2022-11-10T14:14:40.033Z,84.38
2022-11-10T14:15:39.998Z,90.00
2022-11-10T14:16:39.982Z,90.00
2022-11-10T14:17:40.812Z,90.00
2022-11-10T14:18:39.963Z,95.62
2022-11-10T14:19:39.970Z,101.25
2022-11-10T14:20:39.933Z,101.25
2022-11-10T14:21:39.935Z,95.62
2022-11-10T14:22:39.903Z,101.25
2022-11-10T14:23:39.904Z,95.62
2022-11-10T14:24:39.895Z,95.62
2022-11-10T14:25:39.887Z,90.00
2022-11-10T14:26:40.104Z,95.62
2022-11-10T14:27:39.878Z,95.62
2022-11-10T14:28:39.835Z,95.62
2022-11-10T14:29:39.829Z,90.00
2022-11-10T14:30:40.076Z,90.00
2022-11-10T14:31:39.826Z,90.00
2022-11-10T14:32:39.846Z,84.38
2022-11-10T14:33:39.767Z,84.38
2022-11-10T14:34:39.769Z,78.75
2022-11-10T14:35:39.739Z,78.75
2022-11-10T14:36:39.746Z,78.75
2022-11-10T14:37:39.730Z,78.75
2022-11-10T14:38:39.703Z,78.75
2022-11-10T14:39:39.696Z,73.12
2022-11-10T14:40:39.704Z,73.12
2022-11-10T14:41:39.659Z,73.12
2022-11-10T14:42:39.650Z,73.12
2022-11-10T14:43:40.581Z,73.12
2022-11-10T14:44:40.419Z,67.50
2022-11-10T14:45:39.611Z,61.88
2022-11-10T14:46:40.410Z,61.88
2022-11-10T14:47:39.582Z,61.88
2022-11-10T14:48:39.580Z,67.50
2022-11-10T14:49:39.574Z,67.50
2022-11-10T14:50:39.563Z,61.88
2022-11-10T14:51:39.533Z,61.88
2022-11-10T14:52:39.523Z,61.88
2022-11-10T14:53:39.513Z,56.25
2022-11-10T14:54:39.512Z,50.62
2022-11-10T14:55:39.475Z,50.62
2022-11-10T14:56:39.472Z,50.62
2022-11-10T14:57:39.453Z,50.62
2022-11-10T14:58:39.444Z,45.00
2022-11-10T14:59:39.445Z,45.00
2022-11-10T15:00:39.426Z,45.00
2022-11-10T15:01:39.405Z,45.00
2022-11-10T15:02:39.552Z,45.00
2022-11-10T15:03:40.332Z,39.38
2022-11-10T15:04:39.376Z,39.38
2022-11-10T15:05:39.357Z,33.75
2022-11-10T15:06:45.789Z,33.75
2022-11-10T15:07:40.327Z,33.75
2022-11-10T15:08:39.307Z,28.12
2022-11-10T15:09:39.318Z,28.12
2022-11-10T15:10:39.298Z,28.12
2022-11-10T15:11:39.280Z,28.12
2022-11-10T15:12:42.081Z,28.12
2022-11-10T15:13:39.254Z,22.50
2022-11-10T15:14:39.246Z,22.50
2022-11-10T15:15:39.219Z,22.50
2022-11-10T15:16:39.479Z,22.50
2022-11-10T15:17:40.150Z,22.50
2022-11-10T15:18:39.180Z,16.88
2022-11-10T15:19:39.172Z,16.88
2022-11-10T15:20:39.181Z,16.88
2022-11-10T15:21:39.171Z,16.88
2022-11-10T15:22:39.131Z,16.88
2022-11-10T15:23:39.121Z,11.25
2022-11-10T15:24:39.109Z,11.25
2022-11-10T15:25:39.122Z,11.25
2022-11-10T15:26:39.072Z,11.25
2022-11-10T15:27:39.153Z,11.25
2022-11-10T15:28:39.065Z,5.62
2022-11-10T15:29:39.044Z,5.62
2022-11-10T15:30:39.024Z,5.62
2022-11-10T15:31:39.014Z,5.62
2022-11-10T15:32:39.025Z,5.62
2022-11-10T15:33:38.996Z,5.62
2022-11-10T15:34:38.975Z,5.62
2022-11-10T15:35:38.965Z,0.00
2022-11-10T15:36:39.006Z,0.00
2022-11-10T15:37:38.936Z,0.00
2022-11-10T15:38:39.182Z,0.00
2022-11-10T15:39:38.916Z,0.00
2022-11-10T15:40:38.936Z,0.00
2022-11-10T15:41:38.877Z,0.00
2022-11-10T15:42:39.825Z,0.00
2022-11-10T15:43:38.859Z,0.00
2022-11-10T15:44:38.853Z,0.00
2022-11-10T15:45:38.859Z,0.00
2022-11-10T15:46:38.818Z,0.00
2022-11-10T15:47:39.785Z,0.00
2022-11-10T15:48:38.804Z,0.00
2022-11-10T15:49:38.784Z,0.00
2022-11-10T15:50:38.772Z,0.00
2022-11-10T15:51:38.749Z,0.00
2022-11-10T15:52:38.747Z,0.00
2022-11-10T15:53:38.730Z,0.00
2022-11-10T15:54:38.709Z,0.00
2022-11-10T15:55:38.701Z,0.00
2022-11-10T15:56:38.688Z,0.00
2022-11-10T15:57:38.671Z,0.00
2022-11-10T15:58:38.671Z,0.00
2022-11-10T15:59:38.641Z,0.00
2022-11-10T16:00:38.633Z,0.00
2022-11-10T16:01:38.675Z,0.00
2022-11-10T16:02:38.612Z,0.00
2022-11-10T16:03:38.592Z,0.00
2022-11-10T16:04:38.583Z,0.00
2022-11-10T16:05:38.577Z,0.00
2022-11-10T16:06:38.635Z,0.00
2022-11-10T16:07:38.554Z,0.00
2022-11-10T16:08:38.543Z,0.00
2022-11-10T16:09:38.514Z,0.00
2022-11-10T16:10:38.515Z,0.00
2022-11-10T16:11:38.507Z,0.00
2022-11-10T16:12:38.491Z,0.00
2022-11-10T16:13:38.480Z,0.00
2022-11-10T16:14:38.457Z,0.00
2022-11-10T16:15:38.455Z,0.00
2022-11-10T16:16:38.457Z,0.00
2022-11-10T16:17:38.425Z,0.00
2022-11-10T16:18:43.489Z,0.00
2022-11-10T16:19:39.406Z,0.00
2022-11-10T16:20:38.369Z,0.00
2022-11-10T16:21:38.357Z,0.00
2022-11-10T16:22:38.349Z,0.00
2022-11-10T20:22:33.636Z,0.00
2022-11-10T20:22:38.457Z,0.00
2022-11-10T21:03:52.129Z,0.00
2022-11-10T21:03:56.887Z,0.00
2022-11-10T21:04:57.685Z,0.00
2022-11-10T21:05:56.867Z,0.00
2022-11-10T21:06:56.889Z,0.00
2022-11-10T21:07:56.846Z,0.00
2022-11-10T21:08:56.868Z,0.00
2022-11-10T21:09:56.820Z,0.00
2022-11-10T21:10:56.792Z,0.00
2022-11-10T21:11:56.797Z,0.00
2022-11-10T21:12:56.777Z,0.00
2022-11-10T21:13:56.757Z,0.00
2022-11-10T21:14:56.731Z,0.00
2022-11-10T21:15:56.730Z,0.00
2022-11-10T21:16:57.038Z,0.00
2022-11-10T21:17:56.708Z,0.00
2022-11-10T21:18:56.693Z,0.00
2022-11-10T21:19:56.668Z,0.00
2022-11-10T21:20:56.660Z,0.00
2022-11-10T21:21:56.652Z,0.00
2022-11-10T21:23:02.089Z,0.00
2022-11-10T21:23:57.694Z,0.00
2022-11-10T21:24:56.637Z,0.00
2022-11-10T21:25:56.610Z,0.00
2022-11-10T21:26:56.585Z,0.00
2022-11-10T21:27:56.574Z,0.00
2022-11-10T21:28:56.557Z,0.00
2022-11-10T21:29:56.551Z,0.00
2022-11-10T21:30:56.520Z,0.00
2022-11-10T21:31:56.520Z,0.00
2022-11-10T21:32:56.491Z,0.00
2022-11-10T21:33:56.503Z,0.00
2022-11-10T21:34:56.481Z,0.00
2022-11-10T21:35:56.455Z,0.00
2022-11-10T21:36:56.435Z,0.00
2022-11-10T21:37:56.432Z,0.00
2022-11-10T21:38:56.430Z,0.00
2022-11-10T21:39:56.412Z,0.00
2022-11-10T21:40:56.380Z,0.00
2022-11-10T21:41:56.390Z,0.00
2022-11-10T21:42:56.352Z,0.00
2022-11-10T21:43:56.352Z,0.00
2022-11-10T21:44:56.335Z,0.00
2022-11-10T21:45:56.324Z,0.00
2022-11-10T21:46:56.311Z,0.00
2022-11-10T21:47:56.324Z,0.00
2022-11-10T21:48:56.342Z,0.00
2022-11-10T21:49:56.264Z,0.00
2022-11-10T21:50:56.254Z,0.00
2022-11-10T21:51:56.255Z,0.00
2022-11-10T21:52:56.456Z,0.00
2022-11-10T21:53:56.286Z,0.00
2022-11-10T21:54:56.195Z,0.00
2022-11-10T21:55:56.194Z,0.00
2022-11-10T21:56:56.416Z,0.00
2022-11-10T21:57:56.156Z,0.00
2022-11-10T21:58:56.153Z,0.00
2022-11-10T21:59:56.129Z,0.00
2022-11-10T22:00:56.137Z,0.00
2022-11-10T22:01:56.367Z,0.00
2022-11-10T22:02:56.097Z,0.00
2022-11-10T22:03:56.088Z,0.00
2022-11-10T22:04:56.079Z,0.00
2022-11-10T22:05:56.062Z,0.00
2022-11-10T22:06:56.080Z,0.00
2022-11-10T22:07:56.053Z,0.00
2022-11-10T22:08:56.029Z,0.00
2022-11-10T22:09:56.030Z,0.00
2022-11-10T22:10:56.928Z,0.00
2022-11-10T22:11:55.980Z,0.00
2022-11-10T22:12:55.988Z,0.00
2022-11-10T22:13:55.971Z,0.00
2022-11-10T22:14:55.928Z,0.00
2022-11-10T22:15:55.921Z,0.00
2022-11-10T22:16:55.920Z,0.00
2022-11-10T22:17:55.900Z,0.00
2022-11-10T22:18:55.891Z,0.00
2022-11-10T22:19:55.870Z,0.00
2022-11-10T22:20:55.861Z,0.00
2022-11-10T22:21:58.353Z,0.00
2022-11-10T22:22:56.832Z,0.00
2022-11-10T22:23:55.823Z,0.00
2022-11-10T22:24:55.812Z,0.00
2022-11-10T22:25:55.794Z,0.00
2022-11-10T22:26:55.782Z,0.00
2022-11-10T22:27:55.772Z,0.00
2022-11-10T22:28:55.778Z,0.00
2022-11-10T22:29:55.735Z,0.00
2022-11-10T22:30:55.726Z,0.00
2022-11-10T22:31:55.713Z,0.00
2022-11-10T22:32:55.696Z,0.00
2022-11-10T22:33:55.695Z,0.00
2022-11-10T22:34:55.666Z,0.00
2022-11-10T22:35:55.660Z,0.00
2022-11-10T22:36:55.635Z,0.00
2022-11-10T22:37:55.631Z,0.00
2022-11-10T22:39:00.493Z,0.00
2022-11-10T22:39:56.601Z,0.00
2022-11-10T22:40:56.569Z,0.00
2022-11-10T22:41:55.591Z,0.00
2022-11-10T22:42:55.574Z,0.00
2022-11-10T22:43:55.566Z,0.00
2022-11-10T22:44:56.515Z,0.00
2022-11-10T22:45:55.535Z,0.00
2022-11-10T22:46:55.512Z,0.00
2022-11-10T22:47:56.455Z,0.00
2022-11-10T22:48:55.486Z,0.00
2022-11-10T22:49:55.477Z,0.00
2022-11-10T22:50:56.408Z,0.00
2022-11-10T22:51:55.456Z,0.00
2022-11-10T22:52:55.457Z,0.00